Altonah, Utah
Current Conditions -  °F | °C
As of 4:53 AM on Thursday 23 Oct 2014 (Local Time) from KVEL Reporting Station
Clear Clear  
Wind Chill: 33°   Ceiling: Unl
Heat Index: 38°   Visibility: 10mi
Dew Point: 32°   Wind: 7mph
Humidity: 79%   Direction: 260°W
Pressure: 30.23"   Gusts: NA
Location:  40.4°N, 110.29°W
Report Text: KVEL 231053Z AUTO 26006KT 10SM CLR 03/00 A3023 RMK AO2 SLP215 T00330000
Loading
Personal Weather Stations






























Interactive Weather Map
Tropical Storm Tracking
New forecast layout! Learn more

10-Day Weather Forecast

Advertisements
Track Severe Weather on mobile